Consuegra, Spain
Current Conditions -  °F | °C
As of 12:00 PM on Monday 22 Dec 2014 (Local Time) from LEAO Reporting Station
Moderate Fog Moderate Fog  
Wind Chill:   Ceiling: 200
Heat Index:   Visibility: 0.15mi
Dew Point:   Wind: 1mph
Humidity: 100%   Direction: NA
Pressure: 30.48"   Gusts: NA
Location:  39.46°N, 3.61°W
Report Text: LEAO 221100Z VRB01KT 0250 R27/0400N FG VV002 04/04 Q1032
Loading
Personal Weather Stations






























Interactive Weather Map New forecast layout! Learn more

10-Day Weather Forecast

Advertisements
Track Severe Weather on mobile